createdAt,value
2019-03-24T00:00:30.455Z,1015.41
2019-03-24T00:01:40.677Z,1015.38
2019-03-24T00:02:30.502Z,1015.40
2019-03-24T00:03:30.528Z,1015.37
2019-03-24T00:04:30.558Z,1015.37
2019-03-24T00:05:30.580Z,1015.39
2019-03-24T00:06:30.609Z,1015.37
2019-03-24T00:07:30.634Z,1015.34
2019-03-24T00:08:30.654Z,1015.34
2019-03-24T00:09:30.682Z,1015.29
2019-03-24T00:10:30.707Z,1015.30
2019-03-24T00:11:30.736Z,1015.28
2019-03-24T00:12:30.760Z,1015.28
2019-03-24T00:13:30.789Z,1015.26
2019-03-24T00:14:30.813Z,1015.23
2019-03-24T00:15:30.836Z,1015.22
2019-03-24T00:16:30.858Z,1015.18
2019-03-24T00:17:30.886Z,1015.21
2019-03-24T00:18:30.910Z,1015.21
2019-03-24T00:19:30.937Z,1015.20
2019-03-24T00:20:30.962Z,1015.27
2019-03-24T00:21:30.988Z,1015.19
2019-03-24T00:22:31.013Z,1015.23
2019-03-24T00:23:31.037Z,1015.22
2019-03-24T00:24:31.063Z,1015.24
2019-03-24T00:25:31.098Z,1015.19
2019-03-24T00:26:31.116Z,1015.17
2019-03-24T00:27:31.143Z,1015.17
2019-03-24T00:28:31.163Z,1015.15
2019-03-24T00:29:31.192Z,1015.17
2019-03-24T00:30:31.217Z,1015.18
2019-03-24T00:31:31.242Z,1015.18
2019-03-24T00:32:31.267Z,1015.22
2019-03-24T00:33:31.291Z,1015.23
2019-03-24T00:34:31.316Z,1015.25
2019-03-24T00:35:31.341Z,1015.24
2019-03-24T00:36:31.367Z,1015.24
2019-03-24T00:37:31.394Z,1015.21
2019-03-24T00:38:31.419Z,1015.22
2019-03-24T00:39:31.444Z,1015.18
2019-03-24T00:40:31.478Z,1015.14
2019-03-24T00:41:31.494Z,1015.13
2019-03-24T00:42:31.518Z,1015.11
2019-03-24T00:43:31.546Z,1015.14
2019-03-24T00:44:31.568Z,1015.10
2019-03-24T00:45:36.806Z,1015.13
2019-03-24T00:46:31.621Z,1015.14
2019-03-24T00:47:31.649Z,1015.14
2019-03-24T00:48:31.673Z,1015.15
2019-03-24T00:49:31.695Z,1015.14
2019-03-24T00:50:31.722Z,1015.09
2019-03-24T00:51:31.748Z,1015.15
2019-03-24T00:52:31.777Z,1015.16
2019-03-24T00:53:31.798Z,1015.13
2019-03-24T00:54:31.823Z,1015.09
2019-03-24T00:55:31.849Z,1015.06
2019-03-24T00:56:31.875Z,1015.06
2019-03-24T00:57:31.900Z,1014.99
2019-03-24T00:58:31.926Z,1014.98
2019-03-24T00:59:31.950Z,1014.96
2019-03-24T01:00:31.977Z,1014.95
2019-03-24T01:01:32.003Z,1015.03
2019-03-24T01:02:32.026Z,1014.98
2019-03-24T01:03:32.053Z,1014.94
2019-03-24T01:04:32.077Z,1014.92
2019-03-24T01:05:32.104Z,1014.96
2019-03-24T01:06:32.130Z,1014.95
2019-03-24T01:07:32.154Z,1014.96
2019-03-24T01:08:32.182Z,1014.98
2019-03-24T01:09:32.205Z,1014.95
2019-03-24T01:10:32.229Z,1015.00
2019-03-24T01:11:32.256Z,1015.00
2019-03-24T01:12:32.283Z,1015.03
2019-03-24T01:13:32.309Z,1015.01
2019-03-24T01:14:32.335Z,1015.01
2019-03-24T01:15:32.358Z,1015.09
2019-03-24T01:16:32.382Z,1015.01
2019-03-24T01:17:32.407Z,1015.03
2019-03-24T01:18:32.435Z,1015.03
2019-03-24T01:19:32.460Z,1015.06
2019-03-24T01:20:32.483Z,1015.09
2019-03-24T01:21:32.510Z,1015.06
2019-03-24T01:22:32.536Z,1015.01
2019-03-24T01:23:32.565Z,1015.06
2019-03-24T01:24:32.586Z,1015.06
2019-03-24T01:25:32.612Z,1015.06
2019-03-24T01:26:32.641Z,1015.15
2019-03-24T01:27:32.663Z,1015.13
2019-03-24T01:28:32.691Z,1015.10
2019-03-24T01:29:32.716Z,1015.14
2019-03-24T01:30:32.738Z,1015.11
2019-03-24T01:31:32.764Z,1015.10
2019-03-24T01:32:32.790Z,1015.08
2019-03-24T01:33:32.818Z,1015.08
2019-03-24T01:34:32.842Z,1015.14
2019-03-24T01:35:32.871Z,1015.13
2019-03-24T01:36:32.892Z,1015.11
2019-03-24T01:37:32.918Z,1015.08
2019-03-24T01:38:32.943Z,1015.15
2019-03-24T01:39:32.969Z,1015.06
2019-03-24T01:40:32.996Z,1015.17
2019-03-24T01:41:33.022Z,1015.10
2019-03-24T01:42:33.045Z,1015.10
2019-03-24T01:43:33.071Z,1015.13
2019-03-24T01:44:33.095Z,1015.07
2019-03-24T01:45:33.122Z,1015.07
2019-03-24T01:46:33.152Z,1015.07
2019-03-24T01:47:33.178Z,1015.01
2019-03-24T01:48:33.197Z,1015.13
2019-03-24T01:49:33.223Z,1015.13
2019-03-24T01:50:33.250Z,1015.16
2019-03-24T01:51:33.275Z,1015.17
2019-03-24T01:52:33.299Z,1015.17
2019-03-24T01:53:33.325Z,1015.12
2019-03-24T01:54:33.352Z,1015.15
2019-03-24T01:55:33.376Z,1015.16
2019-03-24T01:56:33.405Z,1015.13
2019-03-24T01:57:33.433Z,1015.17
2019-03-24T01:58:33.454Z,1015.15
2019-03-24T01:59:33.482Z,1015.12
2019-03-24T02:00:33.506Z,1015.08
2019-03-24T02:01:33.533Z,1015.17
2019-03-24T02:02:33.561Z,1015.18
2019-03-24T02:03:33.582Z,1015.16
2019-03-24T02:04:33.608Z,1015.20
2019-03-24T02:05:33.631Z,1015.16
2019-03-24T02:06:33.663Z,1015.18
2019-03-24T02:07:33.684Z,1015.10
2019-03-24T02:08:33.712Z,1015.17
2019-03-24T02:09:33.736Z,1015.13
2019-03-24T02:10:33.759Z,1015.10
2019-03-24T02:11:33.785Z,1015.09
2019-03-24T02:12:33.810Z,1015.10
2019-03-24T02:13:33.835Z,1015.09
2019-03-24T02:14:33.861Z,1015.12
2019-03-24T02:15:33.890Z,1015.11
2019-03-24T02:16:33.911Z,1015.19
2019-03-24T02:17:33.943Z,1015.18
2019-03-24T02:18:33.963Z,1015.18
2019-03-24T02:19:33.992Z,1015.17
2019-03-24T02:20:34.016Z,1015.19
2019-03-24T02:21:34.039Z,1015.20
2019-03-24T02:22:34.065Z,1015.24
2019-03-24T02:23:34.093Z,1015.22
2019-03-24T02:24:34.115Z,1015.21
2019-03-24T02:25:34.147Z,1015.25
2019-03-24T02:26:34.165Z,1015.21
2019-03-24T02:27:34.191Z,1015.22
2019-03-24T02:28:34.216Z,1015.22
2019-03-24T02:29:34.246Z,1015.19
2019-03-24T02:30:34.271Z,1015.19
2019-03-24T02:31:34.294Z,1015.17
2019-03-24T02:32:34.318Z,1015.14
2019-03-24T02:33:34.353Z,1015.20
2019-03-24T02:34:34.370Z,1015.13
2019-03-24T02:35:34.403Z,1015.20
2019-03-24T02:36:34.422Z,1015.20
2019-03-24T02:37:34.445Z,1015.18
2019-03-24T02:38:34.480Z,1015.18
2019-03-24T02:39:34.502Z,1015.19
2019-03-24T02:40:34.524Z,1015.19
2019-03-24T02:41:34.551Z,1015.19
2019-03-24T02:42:34.576Z,1015.18
2019-03-24T02:43:34.598Z,1015.15
2019-03-24T02:44:34.625Z,1015.17
2019-03-24T02:45:34.649Z,1015.20
2019-03-24T02:46:34.675Z,1015.21
2019-03-24T02:47:34.720Z,1015.29
2019-03-24T02:48:34.723Z,1015.24
2019-03-24T02:49:34.751Z,1015.28
2019-03-24T02:50:34.775Z,1015.34
2019-03-24T02:51:34.803Z,1015.31
2019-03-24T02:52:34.825Z,1015.33
2019-03-24T02:53:34.858Z,1015.35
2019-03-24T02:54:34.878Z,1015.35
2019-03-24T02:55:34.901Z,1015.35
2019-03-24T02:56:34.935Z,1015.34
2019-03-24T02:57:34.962Z,1015.35
2019-03-24T02:58:34.992Z,1015.29
2019-03-24T02:59:35.004Z,1015.32
2019-03-24T03:00:35.028Z,1015.33
2019-03-24T03:01:35.055Z,1015.31
2019-03-24T03:02:35.079Z,1015.38
2019-03-24T03:03:35.107Z,1015.34
2019-03-24T03:04:35.132Z,1015.28
2019-03-24T03:05:35.159Z,1015.26
2019-03-24T03:06:35.186Z,1015.26
2019-03-24T03:07:35.209Z,1015.24
2019-03-24T03:08:35.240Z,1015.27
2019-03-24T03:09:35.256Z,1015.22
2019-03-24T03:10:35.283Z,1015.23
2019-03-24T03:11:35.306Z,1015.19
2019-03-24T03:12:35.340Z,1015.24
2019-03-24T03:13:35.356Z,1015.22
2019-03-24T03:14:35.406Z,1015.24
2019-03-24T03:15:35.410Z,1015.23
2019-03-24T03:16:38.619Z,1015.27
2019-03-24T03:17:35.457Z,1015.25
2019-03-24T03:18:35.489Z,1015.29
2019-03-24T03:19:35.511Z,1015.28
2019-03-24T03:20:35.538Z,1015.28
2019-03-24T03:21:35.560Z,1015.22
2019-03-24T03:22:35.591Z,1015.26
2019-03-24T03:23:35.612Z,1015.27
2019-03-24T03:24:35.654Z,1015.23
2019-03-24T03:25:35.667Z,1015.25
2019-03-24T03:26:35.687Z,1015.28
2019-03-24T03:27:35.723Z,1015.30
2019-03-24T03:28:35.736Z,1015.28
2019-03-24T03:29:35.764Z,1015.30
2019-03-24T03:30:35.790Z,1015.29
2019-03-24T03:31:35.817Z,1015.34
2019-03-24T03:32:35.838Z,1015.39
2019-03-24T03:33:35.875Z,1015.38
2019-03-24T03:34:35.893Z,1015.42
2019-03-24T03:35:35.919Z,1015.40
2019-03-24T03:36:35.942Z,1015.47
2019-03-24T03:37:35.968Z,1015.44
2019-03-24T03:38:35.992Z,1015.42
2019-03-24T03:39:36.021Z,1015.41
2019-03-24T03:40:36.042Z,1015.42
2019-03-24T03:41:36.067Z,1015.44
2019-03-24T03:42:36.096Z,1015.39
2019-03-24T03:43:36.121Z,1015.43
2019-03-24T03:44:36.143Z,1015.46
2019-03-24T03:45:39.129Z,1015.46
2019-03-24T03:46:36.201Z,1015.49
2019-03-24T03:47:36.221Z,1015.44
2019-03-24T03:48:36.246Z,1015.48
2019-03-24T03:49:36.273Z,1015.45
2019-03-24T03:50:36.306Z,1015.49
2019-03-24T03:51:36.324Z,1015.50
2019-03-24T03:52:36.346Z,1015.52
2019-03-24T03:53:36.378Z,1015.59
2019-03-24T03:54:36.399Z,1015.58
2019-03-24T03:55:36.424Z,1015.54
2019-03-24T03:56:36.448Z,1015.53
2019-03-24T03:57:36.491Z,1015.59
2019-03-24T03:58:36.502Z,1015.54
2019-03-24T03:59:36.528Z,1015.53
2019-03-24T04:00:36.554Z,1015.48
2019-03-24T04:01:36.576Z,1015.54
2019-03-24T04:02:36.607Z,1015.50
2019-03-24T04:03:36.642Z,1015.58
2019-03-24T04:04:36.651Z,1015.59
2019-03-24T04:05:36.734Z,1015.52
2019-03-24T04:06:36.706Z,1015.53
2019-03-24T04:07:36.731Z,1015.58
2019-03-24T04:08:36.755Z,1015.57
2019-03-24T04:09:36.781Z,1015.58
2019-03-24T04:10:36.806Z,1015.57
2019-03-24T04:11:36.844Z,1015.58
2019-03-24T04:12:36.856Z,1015.57
2019-03-24T04:13:36.882Z,1015.61
2019-03-24T04:14:36.907Z,1015.54
2019-03-24T04:15:36.933Z,1015.61
2019-03-24T04:16:36.961Z,1015.60
2019-03-24T04:17:36.987Z,1015.56
2019-03-24T04:18:37.011Z,1015.57
2019-03-24T04:19:37.039Z,1015.56
2019-03-24T04:20:37.068Z,1015.52
2019-03-24T04:21:37.085Z,1015.55
2019-03-24T04:22:37.115Z,1015.56
2019-03-24T04:23:37.137Z,1015.54
2019-03-24T04:24:37.162Z,1015.53
2019-03-24T04:25:37.188Z,1015.56
2019-03-24T04:26:37.212Z,1015.53
2019-03-24T04:27:37.237Z,1015.48
2019-03-24T04:28:37.265Z,1015.48
2019-03-24T04:29:37.294Z,1015.55
2019-03-24T04:30:37.315Z,1015.56
2019-03-24T04:31:37.340Z,1015.59
2019-03-24T04:32:37.369Z,1015.58
2019-03-24T04:33:37.392Z,1015.64
2019-03-24T04:34:37.419Z,1015.63
2019-03-24T04:35:37.450Z,1015.62
2019-03-24T04:36:37.470Z,1015.64
2019-03-24T04:37:37.496Z,1015.67
2019-03-24T04:38:37.522Z,1015.62
2019-03-24T04:39:37.548Z,1015.66
2019-03-24T04:40:37.583Z,1015.63
2019-03-24T04:41:37.595Z,1015.67
2019-03-24T04:42:37.630Z,1015.67
2019-03-24T04:43:37.650Z,1015.62
2019-03-24T04:44:37.675Z,1015.64
2019-03-24T04:45:37.704Z,1015.64
2019-03-24T04:46:37.724Z,1015.69
2019-03-24T04:47:37.754Z,1015.67
2019-03-24T04:48:37.778Z,1015.71
2019-03-24T04:49:37.803Z,1015.67
2019-03-24T04:50:37.828Z,1015.77
2019-03-24T04:51:37.853Z,1015.72
2019-03-24T04:52:37.878Z,1015.78
2019-03-24T04:53:37.906Z,1015.77
2019-03-24T04:54:37.933Z,1015.76
2019-03-24T04:55:37.959Z,1015.80
2019-03-24T04:56:37.985Z,1015.77
2019-03-24T04:57:38.011Z,1015.78
2019-03-24T04:58:38.037Z,1015.83
2019-03-24T04:59:38.064Z,1015.85
2019-03-24T05:00:38.090Z,1015.86
2019-03-24T05:01:38.116Z,1015.89
2019-03-24T05:02:38.150Z,1015.90
2019-03-24T05:03:38.171Z,1015.93
2019-03-24T05:04:38.203Z,1015.92
2019-03-24T05:05:38.225Z,1015.90
2019-03-24T05:06:38.252Z,1015.94
2019-03-24T05:07:38.281Z,1015.93
2019-03-24T05:08:38.308Z,1015.93
2019-03-24T05:09:38.342Z,1015.95
2019-03-24T05:10:38.362Z,1015.99
2019-03-24T05:11:38.392Z,1015.93
2019-03-24T05:12:38.418Z,1015.93
2019-03-24T05:13:38.445Z,1015.96
2019-03-24T05:14:38.471Z,1015.89
2019-03-24T05:15:38.503Z,1015.95
2019-03-24T05:16:38.530Z,1015.95
2019-03-24T05:17:38.556Z,1015.92
2019-03-24T05:18:38.587Z,1015.94
2019-03-24T05:19:38.616Z,1015.96
2019-03-24T05:20:38.638Z,1016.00
2019-03-24T05:21:38.666Z,1016.04
2019-03-24T05:22:38.696Z,1016.05
2019-03-24T05:23:38.724Z,1016.10
2019-03-24T05:24:38.754Z,1016.10
2019-03-24T05:25:38.783Z,1016.08
2019-03-24T05:26:38.808Z,1016.08
2019-03-24T05:27:38.840Z,1016.12
2019-03-24T05:28:38.866Z,1016.17
2019-03-24T05:29:38.895Z,1016.13
2019-03-24T05:30:38.922Z,1016.12
2019-03-24T05:31:38.957Z,1016.11
2019-03-24T05:32:38.978Z,1016.16
2019-03-24T05:33:39.007Z,1016.08
2019-03-24T05:34:39.042Z,1016.11
2019-03-24T05:35:39.068Z,1016.12
2019-03-24T05:36:39.098Z,1016.15
2019-03-24T05:37:39.126Z,1016.18
2019-03-24T05:38:39.157Z,1016.20
2019-03-24T05:39:39.183Z,1016.23
2019-03-24T05:40:39.221Z,1016.16
2019-03-24T05:41:39.243Z,1016.21
2019-03-24T05:42:39.272Z,1016.26
2019-03-24T05:43:39.302Z,1016.20
2019-03-24T05:44:39.332Z,1016.22
2019-03-24T05:45:39.362Z,1016.22
2019-03-24T05:46:39.390Z,1016.24
2019-03-24T05:47:39.424Z,1016.22
2019-03-24T05:48:39.453Z,1016.23
2019-03-24T05:49:39.479Z,1016.22
2019-03-24T05:50:39.515Z,1016.29
2019-03-24T05:51:39.544Z,1016.33
2019-03-24T05:52:39.574Z,1016.31
2019-03-24T05:53:39.604Z,1016.32
2019-03-24T05:54:39.632Z,1016.33
2019-03-24T05:55:39.665Z,1016.40
2019-03-24T05:56:39.694Z,1016.33
2019-03-24T05:57:39.725Z,1016.37
2019-03-24T05:58:39.754Z,1016.38
2019-03-24T05:59:39.785Z,1016.37
2019-03-24T06:00:39.814Z,1016.39
2019-03-24T06:01:39.849Z,1016.43
2019-03-24T06:02:39.877Z,1016.43
2019-03-24T06:03:39.907Z,1016.41
2019-03-24T06:04:39.938Z,1016.52
2019-03-24T06:05:39.973Z,1016.51
2019-03-24T06:06:40.004Z,1016.51
2019-03-24T06:07:40.032Z,1016.53
2019-03-24T06:08:40.062Z,1016.55
2019-03-24T06:09:40.095Z,1016.56
2019-03-24T06:10:40.125Z,1016.59
2019-03-24T06:11:40.157Z,1016.57
2019-03-24T06:12:40.188Z,1016.64
2019-03-24T06:13:40.221Z,1016.70
2019-03-24T06:14:40.250Z,1016.69
2019-03-24T06:15:40.284Z,1016.67
2019-03-24T06:16:40.315Z,1016.68
2019-03-24T06:17:47.824Z,1016.68
2019-03-24T06:18:40.377Z,1016.67
2019-03-24T06:19:40.410Z,1016.65
2019-03-24T06:20:40.444Z,1016.68
2019-03-24T06:21:40.473Z,1016.65
2019-03-24T06:22:40.508Z,1016.70
2019-03-24T06:23:40.539Z,1016.67
2019-03-24T06:24:40.570Z,1016.75
2019-03-24T06:25:40.602Z,1016.72
2019-03-24T06:26:40.640Z,1016.67
2019-03-24T06:27:40.668Z,1016.72
2019-03-24T06:28:40.707Z,1016.71
2019-03-24T06:29:40.732Z,1016.69
2019-03-24T06:30:40.769Z,1016.80
2019-03-24T06:31:40.798Z,1016.74
2019-03-24T06:32:40.830Z,1016.81
2019-03-24T06:33:40.865Z,1016.85
2019-03-24T06:34:40.896Z,1016.74
2019-03-24T06:35:40.930Z,1016.77
2019-03-24T06:36:40.965Z,1016.82
2019-03-24T06:37:40.996Z,1016.83
2019-03-24T06:38:41.027Z,1016.84
2019-03-24T06:39:41.061Z,1016.87
2019-03-24T06:40:41.095Z,1016.88
2019-03-24T06:41:41.130Z,1016.83
2019-03-24T06:42:41.163Z,1016.89
2019-03-24T06:43:41.195Z,1016.90
2019-03-24T06:44:41.228Z,1016.88
2019-03-24T06:45:41.262Z,1016.89
2019-03-24T06:46:41.296Z,1016.90
2019-03-24T06:47:41.330Z,1016.96
2019-03-24T06:48:41.362Z,1016.90
2019-03-24T06:49:41.396Z,1016.96
2019-03-24T06:50:41.436Z,1016.92
2019-03-24T06:51:41.465Z,1016.96
2019-03-24T06:52:41.500Z,1016.95
2019-03-24T06:53:41.532Z,1016.90
2019-03-24T06:54:41.568Z,1016.99
2019-03-24T06:55:41.603Z,1017.00
2019-03-24T06:56:41.635Z,1017.00
2019-03-24T06:57:41.670Z,1016.95
2019-03-24T06:58:41.703Z,1016.97
2019-03-24T06:59:41.741Z,1016.98
2019-03-24T07:00:41.772Z,1017.01
2019-03-24T07:01:41.809Z,1017.01
2019-03-24T07:02:41.847Z,1016.97
2019-03-24T07:03:41.876Z,1016.95
2019-03-24T07:04:41.910Z,1017.05
2019-03-24T07:05:41.946Z,1017.00
2019-03-24T07:06:41.982Z,1017.06
2019-03-24T07:07:42.015Z,1017.08
2019-03-24T07:08:42.050Z,1017.11
2019-03-24T07:09:42.085Z,1017.12
2019-03-24T07:10:42.122Z,1017.12
2019-03-24T07:11:42.161Z,1017.12
2019-03-24T07:12:42.190Z,1017.13
2019-03-24T07:13:42.226Z,1017.17
2019-03-24T07:14:42.264Z,1017.16
2019-03-24T07:15:42.297Z,1017.19
2019-03-24T07:16:42.341Z,1017.11
2019-03-24T07:17:42.369Z,1017.21
2019-03-24T07:18:42.402Z,1017.16
2019-03-24T07:19:42.440Z,1017.09
2019-03-24T07:20:42.513Z,1017.17
2019-03-24T07:21:42.509Z,1017.21
2019-03-24T07:22:42.544Z,1017.21
2019-03-24T07:23:42.583Z,1017.25
2019-03-24T07:24:42.615Z,1017.20
2019-03-24T07:25:42.652Z,1017.28
2019-03-24T07:26:42.687Z,1017.24
2019-03-24T07:27:42.724Z,1017.26
2019-03-24T07:28:42.758Z,1017.31
2019-03-24T07:29:42.794Z,1017.29
2019-03-24T07:30:42.835Z,1017.33
2019-03-24T07:31:42.871Z,1017.25
2019-03-24T07:32:42.902Z,1017.32
2019-03-24T07:33:42.940Z,1017.31
2019-03-24T07:34:42.975Z,1017.23
2019-03-24T07:35:43.014Z,1017.30
2019-03-24T07:36:43.051Z,1017.24
2019-03-24T07:37:43.087Z,1017.24
2019-03-24T07:38:43.124Z,1017.27
2019-03-24T07:39:43.157Z,1017.19
2019-03-24T07:40:43.193Z,1017.23
2019-03-24T07:41:43.235Z,1017.22
2019-03-24T07:42:43.269Z,1017.23
2019-03-24T07:43:43.306Z,1017.24
2019-03-24T07:44:43.345Z,1017.22
2019-03-24T07:45:43.379Z,1017.22
2019-03-24T07:46:43.416Z,1017.20
2019-03-24T07:47:43.452Z,1017.20
2019-03-24T07:48:43.489Z,1017.21
2019-03-24T07:49:43.526Z,1017.10
2019-03-24T07:50:43.569Z,1017.12
2019-03-24T07:51:43.601Z,1017.05
2019-03-24T07:52:43.640Z,1017.08
2019-03-24T07:53:43.680Z,1017.13
2019-03-24T07:54:43.713Z,1017.17
2019-03-24T07:55:43.752Z,1017.13
2019-03-24T07:56:43.787Z,1017.13
2019-03-24T07:57:43.828Z,1017.10
2019-03-24T07:58:45.866Z,1017.07
2019-03-24T07:59:43.904Z,1017.12
2019-03-24T08:00:43.945Z,1017.06
2019-03-24T08:01:43.974Z,1017.10
2019-03-24T08:02:51.088Z,1017.18
2019-03-24T08:03:44.052Z,1017.19
2019-03-24T08:04:44.088Z,1017.24
2019-03-24T08:05:44.130Z,1017.23
2019-03-24T08:06:44.164Z,1017.24
2019-03-24T08:07:44.202Z,1017.24
2019-03-24T08:08:44.634Z,1017.27
2019-03-24T08:09:44.279Z,1017.14
2019-03-24T08:10:44.316Z,1017.25
2019-03-24T08:11:44.359Z,1017.27
2019-03-24T08:12:44.426Z,1017.23
2019-03-24T08:13:53.261Z,1017.27
2019-03-24T08:14:44.470Z,1017.29
2019-03-24T08:15:44.508Z,1017.25
2019-03-24T08:16:44.549Z,1017.28
2019-03-24T08:17:44.585Z,1017.33
2019-03-24T08:18:44.622Z,1017.34
2019-03-24T08:19:44.660Z,1017.36
2019-03-24T08:20:44.702Z,1017.31
2019-03-24T08:21:44.739Z,1017.34
2019-03-24T08:22:44.776Z,1017.33
2019-03-24T08:23:44.817Z,1017.28
2019-03-24T08:24:44.853Z,1017.31
2019-03-24T08:25:44.890Z,1017.22
2019-03-24T08:26:44.932Z,1017.25
2019-03-24T08:27:44.969Z,1017.23
2019-03-24T08:28:45.028Z,1017.22
2019-03-24T08:29:45.048Z,1017.20
2019-03-24T08:30:45.086Z,1017.23
2019-03-24T08:31:45.124Z,1017.20
2019-03-24T08:32:45.163Z,1017.19
2019-03-24T08:33:45.202Z,1017.19
2019-03-24T08:34:45.246Z,1017.26
2019-03-24T08:35:45.290Z,1017.23
2019-03-24T08:36:45.320Z,1017.26
2019-03-24T08:37:45.362Z,1017.25
2019-03-24T08:38:45.397Z,1017.19
2019-03-24T08:39:45.436Z,1017.21
2019-03-24T08:40:45.474Z,1017.24
2019-03-24T08:41:45.515Z,1017.18
2019-03-24T08:42:45.557Z,1017.26
2019-03-24T08:43:45.592Z,1017.20
2019-03-24T08:44:45.633Z,1017.24
2019-03-24T08:45:45.673Z,1017.24
2019-03-24T08:46:47.169Z,1017.20
2019-03-24T08:47:45.749Z,1017.17
2019-03-24T08:48:45.788Z,1017.24
2019-03-24T08:49:45.833Z,1017.24
2019-03-24T08:50:45.868Z,1017.27
2019-03-24T08:51:45.906Z,1017.26
2019-03-24T08:52:45.945Z,1017.20
2019-03-24T08:53:45.984Z,1017.25
2019-03-24T08:54:46.023Z,1017.24
2019-03-24T08:55:46.065Z,1017.28
2019-03-24T08:56:46.103Z,1017.20
2019-03-24T08:57:46.138Z,1017.25
2019-03-24T08:58:46.180Z,1017.25
2019-03-24T08:59:46.270Z,1017.19
2019-03-24T09:00:46.259Z,1017.20
2019-03-24T09:01:46.298Z,1017.20
2019-03-24T09:02:46.335Z,1017.15
2019-03-24T09:03:46.374Z,1017.16
2019-03-24T09:04:46.411Z,1017.12
2019-03-24T09:05:46.452Z,1017.15
2019-03-24T09:06:46.494Z,1017.10
2019-03-24T09:07:46.534Z,1017.15
2019-03-24T09:08:48.878Z,1017.11
2019-03-24T09:09:46.609Z,1017.17
2019-03-24T09:10:46.651Z,1017.16
2019-03-24T09:11:46.688Z,1017.23
2019-03-24T09:12:46.726Z,1017.23
2019-03-24T09:13:46.769Z,1017.28
2019-03-24T09:14:46.806Z,1017.30
2019-03-24T09:15:46.845Z,1017.29
2019-03-24T09:16:46.884Z,1017.27
2019-03-24T09:17:46.976Z,1017.22
2019-03-24T09:18:52.505Z,1017.24
2019-03-24T09:19:47.003Z,1017.29
2019-03-24T09:20:47.045Z,1017.27
2019-03-24T09:21:47.084Z,1017.26
2019-03-24T09:22:47.125Z,1017.28
2019-03-24T09:23:47.170Z,1017.25
2019-03-24T09:24:47.203Z,1017.24
2019-03-24T09:25:47.244Z,1017.24
2019-03-24T09:26:47.282Z,1017.27
2019-03-24T09:27:47.325Z,1017.23
2019-03-24T09:28:47.366Z,1017.17
2019-03-24T09:29:47.407Z,1017.23
2019-03-24T09:30:47.445Z,1017.22
2019-03-24T09:31:47.489Z,1017.22
2019-03-24T09:32:47.528Z,1017.25
2019-03-24T09:33:47.566Z,1017.16
2019-03-24T09:34:47.614Z,1017.17
2019-03-24T09:35:47.646Z,1017.21
2019-03-24T09:36:47.685Z,1017.14
2019-03-24T09:37:47.726Z,1017.17
2019-03-24T09:38:47.768Z,1017.16
2019-03-24T09:39:47.807Z,1017.14
2019-03-24T09:40:47.848Z,1017.15
2019-03-24T09:41:47.886Z,1017.17
2019-03-24T09:42:47.928Z,1017.10
2019-03-24T09:43:47.971Z,1017.09
2019-03-24T09:44:48.011Z,1017.07
2019-03-24T09:45:48.047Z,1017.10
2019-03-24T09:46:48.088Z,1017.02
2019-03-24T09:47:48.128Z,1017.06
2019-03-24T09:48:48.169Z,1017.01
2019-03-24T09:49:48.210Z,1016.98
2019-03-24T09:50:48.247Z,1016.96
2019-03-24T09:51:48.287Z,1016.91
2019-03-24T09:52:48.329Z,1016.93
2019-03-24T09:53:48.373Z,1016.93
2019-03-24T09:54:48.409Z,1016.92
2019-03-24T09:55:48.454Z,1016.92
2019-03-24T09:56:48.493Z,1016.93
2019-03-24T09:57:48.930Z,1016.95
2019-03-24T09:58:48.574Z,1016.87
2019-03-24T09:59:48.613Z,1016.93
2019-03-24T10:00:48.652Z,1016.91
2019-03-24T10:01:48.694Z,1016.91
2019-03-24T10:02:48.736Z,1016.89
2019-03-24T10:03:48.777Z,1016.90
2019-03-24T10:04:48.814Z,1016.90
2019-03-24T10:05:48.855Z,1016.89
2019-03-24T10:06:48.895Z,1016.92
2019-03-24T10:07:48.938Z,1016.92
2019-03-24T10:08:48.983Z,1016.94
2019-03-24T10:09:49.020Z,1016.90
2019-03-24T10:10:49.058Z,1016.87
2019-03-24T10:11:49.261Z,1016.85
2019-03-24T10:12:49.138Z,1016.84
2019-03-24T10:13:49.177Z,1016.82
2019-03-24T10:14:49.220Z,1016.89
2019-03-24T10:15:49.257Z,1016.90
2019-03-24T10:16:49.300Z,1016.91
2019-03-24T10:17:49.340Z,1016.79
2019-03-24T10:18:49.382Z,1016.94
2019-03-24T10:19:49.422Z,1016.96
2019-03-24T10:20:49.462Z,1016.95
2019-03-24T10:21:49.505Z,1016.96
2019-03-24T10:22:49.542Z,1016.98
2019-03-24T10:23:49.580Z,1016.89
2019-03-24T10:24:49.629Z,1016.91
2019-03-24T10:25:49.659Z,1016.94
2019-03-24T10:26:49.700Z,1016.96
2019-03-24T10:27:49.740Z,1017.01
2019-03-24T10:28:49.782Z,1017.02
2019-03-24T10:29:49.821Z,1016.99
2019-03-24T10:30:49.860Z,1016.96
2019-03-24T10:31:49.901Z,1017.02
2019-03-24T10:32:49.942Z,1016.99
2019-03-24T10:33:49.979Z,1017.01
2019-03-24T10:34:50.021Z,1017.01
2019-03-24T10:35:50.061Z,1017.09
2019-03-24T10:36:50.101Z,1017.04
2019-03-24T10:37:50.139Z,1017.02
2019-03-24T10:38:50.180Z,1017.03
2019-03-24T10:39:50.220Z,1017.04
2019-03-24T10:40:50.261Z,1017.02
2019-03-24T10:41:50.297Z,1016.99
2019-03-24T10:42:50.340Z,1017.04
2019-03-24T10:43:50.381Z,1017.06
2019-03-24T10:44:50.417Z,1017.05
2019-03-24T10:45:50.456Z,1017.05
2019-03-24T10:46:50.497Z,1017.06
2019-03-24T10:47:50.538Z,1017.02
2019-03-24T10:48:50.576Z,1016.97
2019-03-24T10:49:50.630Z,1017.03
2019-03-24T10:50:50.658Z,1016.93
2019-03-24T10:51:50.701Z,1016.98
2019-03-24T10:52:50.736Z,1016.93
2019-03-24T10:53:50.777Z,1016.93
2019-03-24T10:54:50.818Z,1016.94
2019-03-24T10:55:50.861Z,1016.96
2019-03-24T10:56:50.897Z,1017.00
2019-03-24T10:57:50.938Z,1017.00
2019-03-24T10:58:50.979Z,1016.99
2019-03-24T10:59:51.020Z,1016.98
2019-03-24T11:00:51.057Z,1016.98
2019-03-24T11:01:51.099Z,1016.90
2019-03-24T11:02:51.140Z,1017.00
2019-03-24T11:03:51.181Z,1016.96
2019-03-24T11:04:51.219Z,1016.99
2019-03-24T11:05:51.262Z,1016.93
2019-03-24T11:06:51.303Z,1016.99
2019-03-24T11:07:51.342Z,1016.97
2019-03-24T11:08:51.383Z,1016.87
2019-03-24T11:09:51.423Z,1016.94
2019-03-24T11:10:51.470Z,1016.90
2019-03-24T11:11:51.503Z,1016.88
2019-03-24T11:12:51.553Z,1016.94
2019-03-24T11:13:51.583Z,1016.97
2019-03-24T11:14:51.625Z,1016.89
2019-03-24T11:15:51.660Z,1016.95
2019-03-24T11:16:51.704Z,1016.95
2019-03-24T11:17:51.740Z,1016.96
2019-03-24T11:18:51.780Z,1016.95
2019-03-24T11:19:51.819Z,1016.99
2019-03-24T11:20:51.861Z,1017.00
2019-03-24T11:21:51.898Z,1016.92
2019-03-24T11:22:51.940Z,1016.91
2019-03-24T11:23:51.977Z,1016.94
2019-03-24T11:24:52.020Z,1016.94
2019-03-24T11:25:52.056Z,1016.91
2019-03-24T11:26:52.093Z,1016.92
2019-03-24T11:27:52.136Z,1016.85
2019-03-24T11:28:52.171Z,1016.90
2019-03-24T11:29:52.216Z,1016.90
2019-03-24T11:30:52.251Z,1016.97
2019-03-24T11:31:52.291Z,1016.93
2019-03-24T11:32:52.335Z,1016.89
2019-03-24T11:33:52.368Z,1016.93
2019-03-24T11:34:52.408Z,1016.94
2019-03-24T11:35:52.449Z,1016.98
2019-03-24T11:36:52.484Z,1017.02
2019-03-24T11:37:52.528Z,1016.97
2019-03-24T11:38:52.565Z,1016.91
2019-03-24T11:39:52.605Z,1016.95
2019-03-24T11:40:52.639Z,1016.94
2019-03-24T11:41:52.681Z,1016.96
2019-03-24T11:42:52.720Z,1016.97
2019-03-24T11:43:52.761Z,1017.02
2019-03-24T11:44:52.801Z,1017.02
2019-03-24T11:45:52.839Z,1016.93
2019-03-24T11:46:52.875Z,1016.89
2019-03-24T11:47:52.926Z,1016.88
2019-03-24T11:48:52.956Z,1016.87
2019-03-24T11:49:52.992Z,1016.86
2019-03-24T11:50:53.035Z,1016.86
2019-03-24T11:51:53.077Z,1016.80
2019-03-24T11:52:53.119Z,1016.84
2019-03-24T11:53:53.150Z,1016.80
2019-03-24T11:54:53.190Z,1016.79
2019-03-24T11:55:53.230Z,1016.79
2019-03-24T11:56:53.267Z,1016.73
2019-03-24T11:57:53.312Z,1016.68
2019-03-24T11:58:53.440Z,1016.64
2019-03-24T11:59:53.390Z,1016.66
2019-03-24T12:00:53.427Z,1016.57
2019-03-24T12:01:53.466Z,1016.59
2019-03-24T12:02:53.506Z,1016.59
2019-03-24T12:03:53.548Z,1016.56
2019-03-24T12:04:53.586Z,1016.59
2019-03-24T12:05:53.624Z,1016.56